Time;durP1;ratioP1;P1;durP2;ratioP2;P2;SDS_P1;SDS_P2;PMS_P1;PMS_P2;Temp;Humidity;BMP_temperature;BMP_pressure;BME280_temperature;BME280_humidity;BME280_pressure;Samples;Min_cycle;Max_cycle;Signal;HPM_P1;HPM_P2
2022/04/11 00:00:27;;;;;;;8.43;4.85;;;5.50;91.10;;;;;;5053195;28;20049;-70
2022/04/11 00:02:53;;;;;;;7.25;4.90;;;5.50;91.30;;;;;;5053677;28;20029;-71
2022/04/11 00:05:18;;;;;;;5.50;4.63;;;5.50;91.50;;;;;;5053112;28;20037;-71
2022/04/11 00:07:44;;;;;;;5.90;5.13;;;5.50;91.50;;;;;;5053415;28;20063;-71
2022/04/11 00:10:10;;;;;;;7.30;5.15;;;5.50;91.70;;;;;;5053175;28;20033;-72
2022/04/11 00:12:37;;;;;;;7.82;4.80;;;5.50;92.00;;;;;;5053262;28;20481;-72
2022/04/11 00:15:06;;;;;;;6.05;5.28;;;5.40;92.20;;;;;;5053398;28;20108;-71
2022/04/11 00:17:32;;;;;;;8.45;5.75;;;5.40;92.10;;;;;;5052784;28;20063;-71
2022/04/11 00:19:58;;;;;;;10.50;5.38;;;5.40;92.20;;;;;;5053332;28;20060;-71
2022/04/11 00:22:24;;;;;;;8.43;5.57;;;5.40;92.40;;;;;;5053087;28;20025;-71
2022/04/11 00:24:50;;;;;;;8.80;5.93;;;5.40;92.50;;;;;;5053616;28;20374;-70
2022/04/11 00:27:16;;;;;;;6.43;5.38;;;5.40;92.60;;;;;;5052598;28;20029;-71
2022/04/11 00:29:42;;;;;;;7.30;5.25;;;5.40;92.80;;;;;;5053129;28;20032;-71
2022/04/11 00:32:08;;;;;;;8.73;5.80;;;5.40;92.80;;;;;;5052571;28;20025;-71
2022/04/11 00:34:33;;;;;;;7.45;5.53;;;5.40;92.90;;;;;;5052477;28;20029;-71
2022/04/11 00:36:59;;;;;;;7.40;5.47;;;5.40;92.90;;;;;;5052911;28;20040;-71
2022/04/11 00:39:25;;;;;;;8.93;6.00;;;5.40;93.00;;;;;;5052304;28;20021;-71
2022/04/11 00:41:50;;;;;;;6.15;5.55;;;5.40;93.20;;;;;;5053082;28;20464;-71
2022/04/11 00:44:16;;;;;;;11.25;6.00;;;5.40;93.30;;;;;;5051865;28;20029;-70
2022/04/11 00:46:41;;;;;;;8.80;6.15;;;5.40;93.40;;;;;;5052479;28;20033;-70
2022/04/11 00:49:08;;;;;;;8.57;6.05;;;5.40;93.50;;;;;;5052192;28;20025;-71
2022/04/11 00:51:34;;;;;;;10.05;6.85;;;5.30;93.50;;;;;;5052035;28;20036;-71
2022/04/11 00:54:01;;;;;;;8.18;5.85;;;5.40;93.70;;;;;;5052751;28;20116;-71
2022/04/11 00:56:28;;;;;;;7.28;6.07;;;5.40;93.80;;;;;;5051769;28;20053;-70
2022/04/11 00:58:55;;;;;;;9.05;6.25;;;5.30;93.80;;;;;;5052435;28;20025;-70
2022/04/11 01:01:21;;;;;;;11.30;6.68;;;5.30;94.00;;;;;;5051720;28;20032;-71
2022/04/11 01:03:46;;;;;;;8.30;6.70;;;5.40;94.00;;;;;;5052259;28;20040;-71
2022/04/11 01:06:12;;;;;;;8.80;6.75;;;5.40;94.00;;;;;;5052213;28;20101;-71
2022/04/11 01:08:38;;;;;;;10.05;6.43;;;5.30;93.90;;;;;;5051816;28;20112;-71
2022/04/11 01:11:05;;;;;;;9.65;6.82;;;5.30;94.00;;;;;;5052415;28;20017;-70
2022/04/11 01:13:31;;;;;;;7.00;6.05;;;5.30;94.10;;;;;;5052098;28;20038;-71
2022/04/11 01:15:59;;;;;;;9.55;6.30;;;5.30;94.10;;;;;;5052136;28;20037;-70
2022/04/11 01:18:24;;;;;;;7.07;6.13;;;5.30;94.20;;;;;;5051608;28;20033;-71
2022/04/11 01:20:50;;;;;;;8.73;6.43;;;5.20;94.30;;;;;;5052309;28;20087;-71
2022/04/11 01:23:16;;;;;;;8.15;6.82;;;5.20;94.40;;;;;;5051109;28;20029;-72
2022/04/11 01:25:48;;;;;;;9.32;6.38;;;5.20;94.50;;;;;;5051915;28;20036;-71
2022/04/11 01:28:13;;;;;;;8.50;6.70;;;5.20;94.50;;;;;;5051927;28;20029;-71
2022/04/11 01:30:39;;;;;;;8.63;6.45;;;5.20;94.40;;;;;;5051541;28;20025;-70
2022/04/11 01:33:19;;;;;;;7.63;6.07;;;5.20;94.40;;;;;;5051882;28;20410;-70
2022/04/11 01:35:46;;;;;;;10.30;6.85;;;5.20;94.80;;;;;;5051921;28;20073;-71
2022/04/11 01:38:11;;;;;;;8.90;7.13;;;5.10;94.90;;;;;;5051987;28;20057;-71
2022/04/11 01:40:37;;;;;;;10.65;6.95;;;5.20;94.70;;;;;;5051142;28;20496;-71
2022/04/11 01:43:03;;;;;;;7.35;6.18;;;5.10;94.50;;;;;;5051848;28;20025;-71
2022/04/11 01:45:29;;;;;;;10.52;7.35;;;5.10;94.60;;;;;;5051348;28;20029;-71
2022/04/11 01:47:55;;;;;;;9.43;6.82;;;5.10;94.80;;;;;;5052110;28;20029;-70
2022/04/11 01:50:21;;;;;;;7.50;6.63;;;5.10;94.60;;;;;;5051040;28;20048;-71
2022/04/11 01:52:46;;;;;;;9.18;6.47;;;5.10;94.60;;;;;;5051837;28;20051;-71
2022/04/11 01:55:12;;;;;;;8.77;6.65;;;5.10;94.50;;;;;;5051334;28;20043;-71
2022/04/11 01:57:37;;;;;;;9.82;7.18;;;5.10;94.60;;;;;;5050673;28;20460;-71
2022/04/11 02:00:03;;;;;;;8.07;6.10;;;5.10;94.70;;;;;;5051887;28;20025;-71
2022/04/11 02:02:29;;;;;;;8.40;6.45;;;5.10;95.10;;;;;;5055404;28;20116;-71
2022/04/11 02:04:55;;;;;;;9.35;6.57;;;5.00;94.90;;;;;;5055608;28;20112;-71
2022/04/11 02:07:20;;;;;;;8.35;6.70;;;5.00;94.90;;;;;;5055184;28;20462;-71
2022/04/11 02:09:46;;;;;;;9.68;7.15;;;5.00;95.00;;;;;;5055472;28;20079;-71
2022/04/11 02:12:11;;;;;;;9.73;7.25;;;5.00;95.10;;;;;;5055857;28;20119;-71
2022/04/11 02:14:37;;;;;;;10.25;7.53;;;5.00;95.10;;;;;;5055086;28;20029;-70
2022/04/11 02:17:03;;;;;;;13.23;7.25;;;5.00;95.20;;;;;;5055517;28;20056;-70
2022/04/11 02:19:28;;;;;;;7.97;6.35;;;5.00;95.40;;;;;;5055059;28;20104;-71
2022/04/11 02:21:54;;;;;;;8.82;6.60;;;5.00;95.50;;;;;;5055532;28;20033;-70
2022/04/11 02:24:20;;;;;;;9.75;6.68;;;5.00;95.50;;;;;;5054926;28;20033;-71
2022/04/11 02:26:45;;;;;;;8.15;6.00;;;5.00;95.60;;;;;;5055009;28;20061;-70
2022/04/11 02:29:11;;;;;;;10.65;7.22;;;5.00;95.60;;;;;;5055601;28;20033;-70
2022/04/11 02:31:36;;;;;;;8.85;6.93;;;5.00;95.60;;;;;;5053629;28;20190;-71
2022/04/11 02:34:02;;;;;;;9.05;6.93;;;5.10;95.60;;;;;;5055646;28;20029;-71
2022/04/11 02:36:28;;;;;;;9.57;7.00;;;5.10;95.60;;;;;;5054643;28;20086;-72
2022/04/11 02:38:53;;;;;;;10.07;7.50;;;5.10;95.50;;;;;;5054055;28;20025;-72
2022/04/11 02:41:19;;;;;;;9.82;7.03;;;5.10;95.60;;;;;;5055715;28;20025;-71
2022/04/11 02:43:45;;;;;;;9.68;6.95;;;5.10;95.40;;;;;;5054682;28;20036;-71
2022/04/11 02:46:10;;;;;;;10.27;7.50;;;5.10;95.50;;;;;;5055190;28;20134;-71
2022/04/11 02:48:37;;;;;;;10.90;7.28;;;5.10;95.50;;;;;;5054581;28;20029;-70
2022/04/11 02:51:02;;;;;;;11.48;7.57;;;5.10;95.50;;;;;;5055028;28;20052;-71
2022/04/11 02:53:28;;;;;;;12.70;7.22;;;5.10;95.60;;;;;;5054471;28;20454;-71
2022/04/11 02:55:54;;;;;;;10.68;8.18;;;5.00;95.60;;;;;;5054629;28;20453;-70
2022/04/11 02:58:19;;;;;;;9.13;7.15;;;5.00;95.70;;;;;;5054975;28;20040;-71
2022/04/11 03:00:45;;;;;;;9.75;7.25;;;5.00;95.70;;;;;;5054244;28;20099;-71
2022/04/11 03:03:10;;;;;;;10.65;7.00;;;5.00;95.70;;;;;;5054899;28;20092;-71
2022/04/11 03:05:37;;;;;;;8.88;7.35;;;5.00;95.90;;;;;;5054193;28;20118;-71
2022/04/11 03:08:03;;;;;;;9.27;7.70;;;5.00;96.00;;;;;;5054489;28;20021;-71
2022/04/11 03:10:28;;;;;;;10.30;7.32;;;4.90;96.00;;;;;;5053813;28;20427;-71
2022/04/11 03:12:54;;;;;;;9.43;7.43;;;4.90;96.10;;;;;;5053925;28;20025;-71
2022/04/11 03:15:19;;;;;;;13.02;7.40;;;4.90;96.20;;;;;;5054620;28;20040;-71
2022/04/11 03:17:45;;;;;;;11.95;8.32;;;4.90;96.30;;;;;;5053936;28;20031;-72
2022/04/11 03:20:11;;;;;;;14.10;8.35;;;4.90;96.30;;;;;;5054582;28;20029;-72
2022/04/11 03:22:36;;;;;;;10.88;7.80;;;4.90;96.50;;;;;;5053616;28;20385;-72
2022/04/11 03:25:02;;;;;;;12.80;8.68;;;4.90;96.60;;;;;;5054463;28;20037;-72
2022/04/11 03:27:28;;;;;;;9.02;7.45;;;4.90;96.60;;;;;;5053421;28;20473;-72
2022/04/11 03:29:54;;;;;;;11.18;7.63;;;4.90;96.50;;;;;;5054086;28;20047;-71
2022/04/11 03:32:20;;;;;;;10.32;7.55;;;4.90;96.70;;;;;;5054195;28;20355;-71
2022/04/11 03:34:45;;;;;;;9.50;7.63;;;4.90;96.70;;;;;;5053632;28;20043;-73
2022/04/11 03:37:12;;;;;;;10.10;7.60;;;4.90;96.80;;;;;;5053786;28;20028;-71
2022/04/11 03:39:37;;;;;;;11.60;8.18;;;4.90;96.60;;;;;;5053573;28;20033;-71
2022/04/11 03:42:03;;;;;;;9.68;7.82;;;4.90;96.60;;;;;;5054141;28;20029;-71
2022/04/11 03:44:29;;;;;;;13.27;7.78;;;4.90;96.60;;;;;;5053510;28;20087;-71
2022/04/11 03:46:55;;;;;;;8.95;7.60;;;4.90;96.50;;;;;;5054104;28;20040;-71
2022/04/11 03:49:21;;;;;;;10.02;7.70;;;4.90;96.50;;;;;;5053734;28;20029;-71
2022/04/11 03:51:46;;;;;;;11.07;8.57;;;4.90;96.60;;;;;;5053244;28;20033;-71
2022/04/11 03:54:12;;;;;;;12.40;8.10;;;4.80;96.50;;;;;;5053892;28;20056;-71
2022/04/11 03:56:37;;;;;;;12.95;8.73;;;4.90;96.70;;;;;;5053113;28;20474;-72
2022/04/11 03:59:03;;;;;;;11.95;8.25;;;4.90;96.70;;;;;;5053790;28;20017;-71
2022/04/11 04:01:29;;;;;;;12.02;8.27;;;4.90;96.80;;;;;;5053115;28;20075;-71
2022/04/11 04:03:54;;;;;;;12.40;8.05;;;4.90;96.90;;;;;;5053583;28;20028;-71
2022/04/11 04:06:20;;;;;;;12.55;8.32;;;4.90;96.90;;;;;;5053528;28;20032;-71
2022/04/11 04:08:46;;;;;;;11.70;8.50;;;4.90;96.80;;;;;;5051874;28;20025;-71
2022/04/11 04:11:12;;;;;;;11.25;8.45;;;5.00;96.90;;;;;;5051668;28;20032;-71
2022/04/11 04:13:37;;;;;;;12.65;8.63;;;5.00;96.80;;;;;;5052505;28;20047;-71
2022/04/11 04:16:04;;;;;;;11.02;8.32;;;5.00;96.70;;;;;;5053134;28;20382;-71
2022/04/11 04:18:30;;;;;;;9.75;8.65;;;5.00;96.70;;;;;;5050944;28;20366;-71
2022/04/11 04:20:56;;;;;;;14.35;8.48;;;5.10;96.50;;;;;;5052031;28;20040;-71
2022/04/11 04:23:22;;;;;;;11.27;8.40;;;5.10;96.30;;;;;;5052115;28;20059;-71
2022/04/11 04:25:47;;;;;;;11.35;8.40;;;5.10;96.20;;;;;;5051471;28;20039;-71
2022/04/11 04:28:15;;;;;;;11.82;8.82;;;5.20;96.10;;;;;;5053183;28;20096;-71
2022/04/11 04:30:40;;;;;;;12.13;8.50;;;5.20;96.10;;;;;;5052455;28;20029;-71
2022/04/11 04:33:06;;;;;;;11.75;8.85;;;5.20;95.90;;;;;;5052977;28;20366;-71
2022/04/11 04:35:32;;;;;;;14.50;8.85;;;5.20;95.70;;;;;;5052237;28;20428;-72
2022/04/11 04:37:57;;;;;;;12.75;8.98;;;5.20;95.80;;;;;;5052636;28;20033;-72
2022/04/11 04:40:23;;;;;;;13.95;9.07;;;5.30;95.60;;;;;;5052818;28;20029;-71
2022/04/11 04:42:48;;;;;;;10.85;8.65;;;5.30;95.50;;;;;;5051881;28;20037;-71
2022/04/11 04:45:14;;;;;;;11.00;8.43;;;5.40;95.30;;;;;;5052888;28;20032;-71
2022/04/11 04:47:40;;;;;;;10.85;8.60;;;5.40;95.40;;;;;;5052048;28;20025;-71
2022/04/11 04:50:06;;;;;;;10.95;8.52;;;5.50;95.30;;;;;;5052622;28;20032;-71
2022/04/11 04:52:32;;;;;;;13.38;8.52;;;5.50;95.10;;;;;;5051958;28;20040;-72
2022/04/11 04:54:58;;;;;;;11.88;7.93;;;5.60;94.70;;;;;;5052289;28;20050;-71
2022/04/11 04:57:23;;;;;;;12.00;8.13;;;5.60;94.50;;;;;;5051965;28;20092;-71
2022/04/11 04:59:49;;;;;;;14.32;8.65;;;5.70;94.30;;;;;;5051901;28;20075;-71
2022/04/11 05:02:14;;;;;;;9.48;7.43;;;5.70;94.00;;;;;;5052573;28;20355;-71
2022/04/11 05:04:40;;;;;;;13.20;8.38;;;5.70;93.80;;;;;;5051804;28;20021;-72
2022/04/11 05:07:06;;;;;;;9.30;7.50;;;5.80;93.80;;;;;;5052354;28;20029;-70
2022/04/11 05:09:31;;;;;;;11.98;7.78;;;5.80;93.30;;;;;;5051879;28;20029;-71
2022/04/11 05:11:57;;;;;;;10.88;7.70;;;5.90;93.20;;;;;;5051918;28;20470;-70
2022/04/11 05:14:23;;;;;;;9.52;7.25;;;5.90;92.70;;;;;;5052289;28;20060;-71
2022/04/11 05:16:48;;;;;;;12.57;7.78;;;6.00;92.00;;;;;;5051385;28;20068;-71
2022/04/11 05:19:14;;;;;;;9.80;7.30;;;6.10;91.60;;;;;;5052176;28;20135;-71
2022/04/11 05:21:40;;;;;;;11.60;7.57;;;6.10;91.10;;;;;;5051497;28;20021;-71
2022/04/11 05:24:06;;;;;;;10.20;7.53;;;6.10;90.90;;;;;;5052303;28;20032;-71
2022/04/11 05:26:31;;;;;;;13.25;7.38;;;6.10;91.30;;;;;;5052013;28;20024;-71
2022/04/11 05:28:57;;;;;;;10.63;7.28;;;6.20;91.10;;;;;;5051300;28;20493;-70
2022/04/11 05:31:23;;;;;;;11.13;7.35;;;6.10;90.90;;;;;;5051710;28;20028;-70
2022/04/11 05:33:48;;;;;;;8.60;6.97;;;6.20;90.50;;;;;;5051039;28;20029;-70
2022/04/11 05:36:14;;;;;;;13.32;7.28;;;6.20;90.10;;;;;;5051445;28;20076;-71
2022/04/11 05:38:40;;;;;;;9.35;6.40;;;6.20;89.40;;;;;;5051151;28;20028;-71
2022/04/11 05:41:06;;;;;;;10.18;6.07;;;6.20;89.00;;;;;;5051931;28;20025;-70
2022/04/11 05:43:32;;;;;;;8.98;5.63;;;6.20;87.70;;;;;;5051560;28;20108;-71
2022/04/11 05:45:59;;;;;;;7.45;6.05;;;6.20;86.50;;;;;;5051185;28;20433;-71
2022/04/11 05:48:25;;;;;;;6.65;5.78;;;6.20;85.40;;;;;;5051474;28;20469;-72
2022/04/11 05:50:50;;;;;;;9.43;5.82;;;6.20;86.10;;;;;;5051240;28;20100;-71
2022/04/11 05:53:18;;;;;;;7.78;5.57;;;6.30;86.10;;;;;;5052005;28;20021;-71
2022/04/11 05:55:44;;;;;;;10.13;5.20;;;6.30;84.60;;;;;;5050680;28;20051;-71
2022/04/11 05:58:11;;;;;;;9.90;4.53;;;6.40;84.00;;;;;;5051820;28;20495;-71
2022/04/11 06:00:36;;;;;;;8.63;3.67;;;6.40;81.90;;;;;;5050996;28;20064;-71
2022/04/11 06:03:02;;;;;;;5.22;3.53;;;6.50;80.70;;;;;;5051689;28;20059;-72
2022/04/11 06:05:27;;;;;;;6.55;3.88;;;6.50;79.20;;;;;;5050275;28;20029;-71
2022/04/11 06:07:53;;;;;;;7.40;4.00;;;6.60;78.90;;;;;;5051047;28;20029;-71
2022/04/11 06:10:19;;;;;;;7.72;3.75;;;6.80;78.90;;;;;;5052003;28;20416;-71
2022/04/11 06:12:44;;;;;;;8.00;4.05;;;6.90;78.00;;;;;;5051027;28;20440;-71
2022/04/11 06:15:11;;;;;;;6.47;3.60;;;7.10;77.60;;;;;;5051747;28;20021;-71
2022/04/11 06:17:37;;;;;;;8.80;3.80;;;7.30;75.70;;;;;;5051122;28;20104;-73
2022/04/11 06:20:03;;;;;;;5.25;3.28;;;7.50;74.80;;;;;;5051379;28;20113;-71
2022/04/11 06:22:29;;;;;;;7.80;3.28;;;7.80;73.40;;;;;;5051655;28;20064;-70
2022/04/11 06:25:01;;;;;;;6.13;2.80;;;8.10;70.60;;;;;;5050665;28;20398;-71
2022/04/11 06:27:27;;;;;;;9.70;3.40;;;8.50;69.20;;;;;;5051741;28;20435;-71
2022/04/11 06:29:56;;;;;;;6.80;3.38;;;8.90;68.40;;;;;;5050926;28;20036;-71
2022/04/11 06:32:30;;;;;;;4.60;2.70;;;9.10;65.30;;;;;;5051416;28;20033;-70
2022/04/11 06:34:56;;;;;;;4.90;3.08;;;9.30;63.10;;;;;;5050648;28;20029;-72
2022/04/11 06:37:24;;;;;;;5.95;2.40;;;9.50;63.10;;;;;;5051311;28;20112;-71
2022/04/11 06:39:50;;;;;;;5.68;2.20;;;9.80;62.10;;;;;;5050741;28;20032;-72
2022/04/11 06:42:16;;;;;;;6.70;2.55;;;9.90;60.00;;;;;;5051131;28;20025;-74
2022/04/11 06:44:41;;;;;;;5.90;2.33;;;10.10;58.40;;;;;;5049742;28;20112;-71
2022/04/11 06:47:08;;;;;;;8.10;2.45;;;10.30;58.60;;;;;;5051556;28;20036;-71
2022/04/11 06:49:34;;;;;;;6.78;2.65;;;10.50;57.00;;;;;;5055074;28;20443;-71
2022/04/11 06:52:00;;;;;;;7.18;2.63;;;10.70;56.10;;;;;;5054754;28;20106;-70
2022/04/11 06:54:27;;;;;;;4.63;2.20;;;11.00;55.70;;;;;;5054850;28;20078;-70
2022/04/11 06:56:53;;;;;;;6.10;2.42;;;11.30;54.60;;;;;;5054349;28;20044;-71
2022/04/11 06:59:18;;;;;;;5.35;2.05;;;11.60;53.40;;;;;;5054827;28;20117;-71
2022/04/11 07:01:44;;;;;;;8.52;2.38;;;12.10;51.20;;;;;;5054377;28;20108;-70
2022/04/11 07:04:10;;;;;;;6.95;2.30;;;12.80;50.90;;;;;;5054793;28;20126;-70
2022/04/11 07:06:35;;;;;;;7.30;2.10;;;14.40;50.80;;;;;;5054608;28;20453;-71
2022/04/11 07:09:01;;;;;;;4.43;1.98;;;17.50;44.00;;;;;;5054119;28;20033;-71
2022/04/11 07:11:27;;;;;;;6.88;1.83;;;18.50;37.70;;;;;;5054391;28;20039;-71
2022/04/11 07:13:52;;;;;;;5.75;2.40;;;19.70;36.20;;;;;;5053887;28;20075;-71
2022/04/11 07:16:18;;;;;;;5.05;2.20;;;21.00;32.50;;;;;;5054184;28;20036;-70
2022/04/11 07:18:43;;;;;;;4.63;2.35;;;22.40;31.00;;;;;;5053886;28;20021;-71
2022/04/11 07:21:09;;;;;;;4.18;1.90;;;21.80;28.90;;;;;;5054512;28;20033;-70
2022/04/11 07:23:35;;;;;;;3.72;2.20;;;19.40;30.10;;;;;;5054236;28;20431;-71
2022/04/11 07:26:00;;;;;;;4.00;1.90;;;19.90;33.30;;;;;;5053771;28;20032;-71
2022/04/11 07:28:26;;;;;;;4.78;2.25;;;22.10;31.20;;;;;;5054288;28;20029;-70
2022/04/11 07:30:51;;;;;;;7.05;2.13;;;23.70;29.80;;;;;;5053422;28;20029;-70
2022/04/11 07:33:17;;;;;;;5.18;2.30;;;25.20;27.50;;;;;;5054274;28;20119;-70
2022/04/11 07:35:43;;;;;;;4.68;1.80;;;25.50;26.60;;;;;;5053452;28;20082;-72
2022/04/11 07:38:09;;;;;;;5.47;1.98;;;25.90;26.20;;;;;;5054164;28;20432;-71
2022/04/11 07:40:35;;;;;;;4.53;1.95;;;26.40;25.70;;;;;;5054197;28;20025;-70
2022/04/11 07:43:00;;;;;;;5.22;2.20;;;26.20;25.30;;;;;;5053508;28;20127;-71
2022/04/11 07:45:26;;;;;;;3.33;1.77;;;26.40;25.50;;;;;;5053930;28;20115;-70
2022/04/11 07:47:52;;;;;;;3.92;1.77;;;26.80;25.50;;;;;;5053327;28;20151;-70
2022/04/11 07:50:17;;;;;;;4.82;1.98;;;27.70;24.20;;;;;;5053817;28;20036;-71
2022/04/11 07:52:44;;;;;;;4.30;2.05;;;28.10;23.80;;;;;;5054102;28;20032;-69
2022/04/11 07:55:12;;;;;;;5.97;2.30;;;28.70;24.10;;;;;;5053560;28;20021;-72
2022/04/11 07:57:38;;;;;;;5.93;2.10;;;28.40;23.70;;;;;;5053815;28;20056;-70
2022/04/11 08:00:09;;;;;;;4.18;2.53;;;28.00;23.30;;;;;;5052787;28;20360;-71
2022/04/11 08:02:34;;;;;;;6.50;2.03;;;27.90;23.00;;;;;;5052499;28;20025;-70
2022/04/11 08:05:07;;;;;;;5.40;2.00;;;28.40;22.90;;;;;;5052811;28;20549;-71
2022/04/11 08:07:33;;;;;;;3.83;2.30;;;28.90;23.00;;;;;;5053378;28;20484;-71
2022/04/11 08:10:00;;;;;;;8.52;2.40;;;29.00;22.40;;;;;;5052778;28;20083;-71
2022/04/11 08:12:25;;;;;;;6.10;1.98;;;29.30;23.10;;;;;;5053570;28;20029;-72
2022/04/11 08:14:51;;;;;;;5.47;1.92;;;29.00;22.10;;;;;;5052770;28;20029;-70
2022/04/11 08:17:17;;;;;;;5.43;2.20;;;29.20;21.80;;;;;;5053610;28;20037;-71
2022/04/11 08:19:42;;;;;;;4.72;1.80;;;27.60;21.90;;;;;;5052868;28;20127;-70
2022/04/11 08:22:08;;;;;;;4.38;1.70;;;27.50;22.80;;;;;;5052794;28;20097;-71
2022/04/11 08:24:34;;;;;;;6.13;2.00;;;27.40;23.30;;;;;;5053636;28;20458;-70
2022/04/11 08:26:59;;;;;;;5.90;2.08;;;27.90;23.10;;;;;;5052540;28;20029;-71
2022/04/11 08:29:25;;;;;;;2.97;1.60;;;27.70;23.20;;;;;;5052837;28;20024;-71
2022/04/11 08:31:51;;;;;;;6.65;1.45;;;28.50;23.20;;;;;;5052581;28;20457;-69
2022/04/11 08:34:17;;;;;;;4.28;1.58;;;28.10;22.60;;;;;;5053100;28;20025;-70
2022/04/11 08:36:43;;;;;;;5.10;1.67;;;26.50;22.80;;;;;;5052946;28;20036;-71
2022/04/11 08:39:09;;;;;;;3.97;1.38;;;26.20;24.10;;;;;;5052469;28;20033;-71
2022/04/11 08:41:36;;;;;;;4.63;1.70;;;24.10;22.20;;;;;;5053237;28;20025;-71
2022/04/11 08:44:06;;;;;;;3.50;1.45;;;22.10;24.00;;;;;;5052675;28;20108;-71
2022/04/11 08:46:34;;;;;;;5.28;1.80;;;21.40;25.20;;;;;;5053243;28;20032;-73
2022/04/11 08:49:01;;;;;;;3.70;1.63;;;20.40;26.50;;;;;;5052636;28;20082;-72
2022/04/11 08:51:31;;;;;;;5.68;1.88;;;19.70;27.80;;;;;;5053593;28;20033;-70
2022/04/11 08:53:57;;;;;;;4.07;1.85;;;19.10;28.40;;;;;;5052247;28;20036;-70
2022/04/11 08:56:23;;;;;;;5.03;1.80;;;18.70;29.20;;;;;;5052539;28;20144;-70
2022/04/11 08:58:48;;;;;;;6.07;1.63;;;18.20;28.80;;;;;;5052794;28;20096;-73
2022/04/11 09:01:14;;;;;;;4.45;1.52;;;18.00;30.60;;;;;;5052788;28;20033;-70
2022/04/11 09:03:42;;;;;;;4.43;1.50;;;17.70;30.30;;;;;;5052637;28;20021;-71
2022/04/11 09:06:10;;;;;;;5.85;2.08;;;17.60;31.00;;;;;;5051976;28;20362;-70
2022/04/11 09:08:40;;;;;;;3.78;1.55;;;17.60;31.40;;;;;;5052436;28;20037;-73
2022/04/11 09:11:06;;;;;;;6.90;1.33;;;17.60;30.10;;;;;;5051605;28;20025;-74
2022/04/11 09:13:51;;;;;;;5.75;1.70;;;17.50;29.00;;;;;;5052483;28;20120;-70
2022/04/11 09:16:18;;;;;;;7.00;1.30;;;17.30;28.90;;;;;;5052162;28;20115;-70
2022/04/11 09:18:52;;;;;;;3.58;1.60;;;17.20;29.20;;;;;;5052384;28;20462;-70
2022/04/11 09:21:20;;;;;;;3.92;1.70;;;17.00;29.10;;;;;;5052234;28;20029;-71
2022/04/11 09:23:47;;;;;;;6.40;1.88;;;17.00;30.10;;;;;;5051860;28;20119;-71
2022/04/11 09:26:21;;;;;;;3.33;1.65;;;16.90;29.80;;;;;;5051666;28;20063;-70
2022/04/11 09:29:00;;;;;;;9.48;1.83;;;16.80;29.90;;;;;;5052347;28;20033;-71
2022/04/11 09:31:26;;;;;;;2.88;1.60;;;16.70;30.30;;;;;;5052271;28;20300;-70
2022/04/11 09:33:52;;;;;;;7.45;1.80;;;16.60;30.00;;;;;;5051541;28;20032;-71
2022/04/11 09:36:20;;;;;;;2.50;1.38;;;16.40;30.80;;;;;;5051975;28;20037;-70
2022/04/11 09:38:59;;;;;;;6.72;2.00;;;16.20;30.70;;;;;;5052086;28;20115;-69
2022/04/11 09:41:34;;;;;;;6.88;1.80;;;16.10;32.10;;;;;;5051883;28;20048;-70
2022/04/11 09:44:20;;;;;;;3.75;1.73;;;16.20;31.80;;;;;;5051329;28;20032;-70
2022/04/11 09:46:46;;;;;;;6.35;2.22;;;16.20;31.30;;;;;;5052059;28;20037;-70
2022/04/11 09:49:12;;;;;;;3.67;1.70;;;16.10;31.20;;;;;;5049894;28;20029;-70
2022/04/11 09:52:00;;;;;;;4.00;2.10;;;16.10;31.80;;;;;;5051878;28;20407;-70
2022/04/11 09:54:26;;;;;;;8.02;2.10;;;16.10;31.80;;;;;;5051692;28;20060;-71
2022/04/11 09:56:53;;;;;;;5.03;2.08;;;16.10;31.90;;;;;;5051517;28;20061;-71
2022/04/11 09:59:22;;;;;;;3.47;1.50;;;16.20;31.30;;;;;;5051872;28;20148;-71
2022/04/11 10:01:50;;;;;;;5.82;1.90;;;16.00;30.70;;;;;;5051599;28;20025;-71
2022/04/11 10:04:17;;;;;;;8.55;2.13;;;15.80;30.00;;;;;;5051260;28;20057;-71
2022/04/11 10:06:43;;;;;;;3.35;1.83;;;15.80;31.00;;;;;;5052184;28;20068;-70
2022/04/11 10:09:10;;;;;;;6.50;1.55;;;15.70;31.60;;;;;;5050995;28;20136;-71
2022/04/11 10:11:35;;;;;;;7.80;2.22;;;15.60;31.50;;;;;;5051779;28;20029;-70
2022/04/11 10:14:02;;;;;;;4.63;1.77;;;15.60;31.40;;;;;;5050096;28;20025;-72
2022/04/11 10:16:28;;;;;;;3.75;1.30;;;15.60;31.80;;;;;;5052188;28;20143;-71
2022/04/11 10:19:01;;;;;;;3.33;1.63;;;15.50;31.40;;;;;;5051912;28;20474;-70
2022/04/11 10:21:28;;;;;;;3.33;1.60;;;15.40;31.60;;;;;;5051982;28;20032;-71
2022/04/11 10:24:08;;;;;;;4.13;1.60;;;15.30;32.10;;;;;;5054753;28;20362;-70
2022/04/11 10:26:53;;;;;;;2.53;1.20;;;15.30;32.80;;;;;;5055557;28;20385;-72
2022/04/11 10:29:36;;;;;;;6.32;1.50;;;15.40;31.90;;;;;;5054911;28;20028;-71
2022/04/11 10:32:13;;;;;;;3.55;1.42;;;15.40;33.20;;;;;;5055004;28;20048;-70
2022/04/11 10:34:52;;;;;;;5.13;1.70;;;15.70;33.90;;;;;;5055794;28;20354;-71
2022/04/11 10:37:20;;;;;;;4.85;1.60;;;15.90;33.00;;;;;;5054450;28;20393;-71
2022/04/11 10:39:47;;;;;;;4.50;1.80;;;16.10;32.70;;;;;;5055469;28;20033;-71
2022/04/11 10:42:14;;;;;;;4.47;1.63;;;16.10;30.40;;;;;;5054771;28;20021;-71
2022/04/11 10:44:42;;;;;;;8.35;1.95;;;16.10;29.90;;;;;;5054888;28;20031;-71
2022/04/11 10:47:08;;;;;;;3.78;1.73;;;16.00;30.40;;;;;;5054620;28;20024;-72
2022/04/11 10:49:49;;;;;;;3.08;1.65;;;16.10;32.00;;;;;;5055184;28;20327;-71
2022/04/11 10:52:37;;;;;;;3.45;1.50;;;16.30;33.00;;;;;;5054276;28;20104;-71
2022/04/11 10:55:11;;;;;;;5.68;1.60;;;16.30;30.20;;;;;;5054326;28;20108;-72
2022/04/11 10:57:42;;;;;;;4.50;1.60;;;16.30;29.80;;;;;;5055158;28;20099;-71
2022/04/11 11:00:18;;;;;;;;;;;16.40;30.90;;;;;;5054494;28;20035;-71
2022/04/11 11:02:50;;;;;;;5.13;2.15;;;16.40;31.50;;;;;;5054392;28;19999;-71
2022/04/11 11:05:25;;;;;;;5.72;1.80;;;16.40;30.00;;;;;;5054385;28;20168;-71
2022/04/11 11:08:11;;;;;;;6.13;1.95;;;16.30;30.50;;;;;;5054994;28;20025;-70
2022/04/11 11:10:43;;;;;;;6.20;1.88;;;16.20;30.60;;;;;;5054857;28;20029;-70
2022/04/11 11:13:41;;;;;;;6.35;2.17;;;16.10;30.20;;;;;;5054303;28;20044;-71
2022/04/11 11:16:07;;;;;;;5.00;2.63;;;16.00;29.90;;;;;;5041949;28;20037;-71
2022/04/11 11:18:51;;;;;;;2.45;1.50;;;16.00;31.50;;;;;;5054717;28;20032;-71
2022/04/11 11:21:44;;;;;;;5.95;1.90;;;16.00;31.90;;;;;;5053985;28;20051;-70
2022/04/11 11:24:12;;;;;;;4.75;2.30;;;15.80;30.00;;;;;;5053526;28;20041;-71
2022/04/11 11:26:52;;;;;;;5.80;1.85;;;15.50;29.90;;;;;;5054500;28;20082;-72
2022/04/11 11:29:19;;;;;;;6.38;1.65;;;15.50;31.60;;;;;;5053886;28;20036;-72
2022/04/11 11:31:46;;;;;;;4.25;1.80;;;15.50;32.30;;;;;;5054364;28;20028;-71
2022/04/11 11:34:14;;;;;;;5.13;1.90;;;15.30;31.00;;;;;;5053140;28;20025;-71
2022/04/11 11:36:41;;;;;;;6.30;2.00;;;15.40;32.30;;;;;;5054221;28;20049;-72
2022/04/11 11:39:16;;;;;;;4.65;1.92;;;15.40;32.00;;;;;;5053511;28;20485;-72
2022/04/11 11:41:45;;;;;;;3.38;1.83;;;15.50;32.40;;;;;;5054191;28;20025;-71
2022/04/11 11:44:12;;;;;;;3.55;1.73;;;15.50;32.50;;;;;;5052411;28;20036;-71
2022/04/11 11:46:49;;;;;;;4.63;1.88;;;15.60;32.70;;;;;;5054395;28;20029;-72
2022/04/11 11:49:15;;;;;;;4.35;1.80;;;15.70;31.50;;;;;;5053583;28;20025;-72
2022/04/11 11:51:41;;;;;;;5.40;2.40;;;15.70;31.20;;;;;;5054230;28;20060;-74
2022/04/11 11:54:07;;;;;;;5.00;1.90;;;15.60;32.00;;;;;;5053357;28;20090;-72
2022/04/11 11:56:46;;;;;;;6.88;1.90;;;15.60;33.10;;;;;;5053733;28;20394;-71
2022/04/11 11:59:14;;;;;;;5.75;1.95;;;15.60;32.70;;;;;;5053222;28;20021;-72
2022/04/11 12:01:40;;;;;;;4.57;1.77;;;15.70;32.20;;;;;;5054428;28;20036;-71
2022/04/11 12:04:19;;;;;;;9.07;1.80;;;15.50;30.10;;;;;;5051855;28;20025;-70
2022/04/11 12:06:54;;;;;;;4.35;2.08;;;15.50;30.80;;;;;;5053305;28;20040;-71
2022/04/11 12:09:20;;;;;;;3.42;1.60;;;15.30;30.20;;;;;;5052853;28;20075;-71
2022/04/11 12:11:46;;;;;;;6.65;2.38;;;15.10;31.90;;;;;;5053407;28;20136;-71
2022/04/11 12:14:11;;;;;;;3.53;1.60;;;15.10;32.40;;;;;;5053172;28;20478;-72
2022/04/11 12:16:56;;;;;;;5.22;1.90;;;15.10;31.50;;;;;;5053523;28;20041;-71
2022/04/11 12:19:36;;;;;;;5.28;2.05;;;15.10;32.10;;;;;;5052974;28;20029;-71
2022/04/11 12:22:14;;;;;;;4.68;1.80;;;15.10;32.40;;;;;;5053605;28;20151;-72
2022/04/11 12:24:41;;;;;;;5.25;1.70;;;15.20;32.10;;;;;;5052985;28;20031;-71
2022/04/11 12:27:13;;;;;;;4.80;1.80;;;15.20;33.10;;;;;;5050833;28;20076;-72
2022/04/11 12:29:42;;;;;;;9.63;2.50;;;15.10;32.60;;;;;;5053383;28;20048;-71
2022/04/11 12:32:13;;;;;;;7.15;1.70;;;15.20;32.50;;;;;;5052306;28;20029;-71
2022/04/11 12:34:40;;;;;;;;;;;15.10;32.20;;;;;;5053335;28;20040;-72
2022/04/11 12:37:07;;;;;;;3.10;1.58;;;15.00;31.00;;;;;;5051943;28;20386;-72
2022/04/11 12:39:53;;;;;;;4.80;1.73;;;14.90;30.70;;;;;;5053303;28;20035;-72
2022/04/11 12:42:23;;;;;;;4.65;1.85;;;14.80;31.00;;;;;;5052316;28;20080;-71
2022/04/11 12:44:56;;;;;;;5.05;1.80;;;14.80;32.30;;;;;;5052281;28;20055;-72
2022/04/11 12:47:22;;;;;;;2.42;1.40;;;14.70;31.40;;;;;;5052127;28;20036;-72
2022/04/11 12:49:50;;;;;;;5.50;1.55;;;14.60;30.80;;;;;;5052848;28;20174;-72
2022/04/11 12:52:23;;;;;;;5.15;1.70;;;14.50;32.00;;;;;;5052245;28;20377;-71